sensor_id;sensor_type;location;lat;lon;timestamp;P1;durP1;ratioP1;P2;durP2;ratioP2
3767;SDS011;1899;49.966;7.106;2022-12-29T00:01:04;2.27;;;1.90;;
3767;SDS011;1899;49.966;7.106;2022-12-29T00:03:29;4.80;;;2.20;;
3767;SDS011;1899;49.966;7.106;2022-12-29T00:05:55;3.87;;;2.40;;
3767;SDS011;1899;49.966;7.106;2022-12-29T00:08:21;3.30;;;2.17;;
3767;SDS011;1899;49.966;7.106;2022-12-29T00:11:04;3.25;;;2.40;;
3767;SDS011;1899;49.966;7.106;2022-12-29T00:13:29;3.00;;;2.40;;
3767;SDS011;1899;49.966;7.106;2022-12-29T00:16:12;2.10;;;1.90;;
3767;SDS011;1899;49.966;7.106;2022-12-29T00:18:38;2.50;;;2.07;;
3767;SDS011;1899;49.966;7.106;2022-12-29T00:21:03;2.50;;;2.10;;
3767;SDS011;1899;49.966;7.106;2022-12-29T00:23:47;2.47;;;1.55;;
3767;SDS011;1899;49.966;7.106;2022-12-29T00:26:31;2.10;;;1.90;;
3767;SDS011;1899;49.966;7.106;2022-12-29T00:29:14;2.05;;;1.77;;
3767;SDS011;1899;49.966;7.106;2022-12-29T00:31:58;3.10;;;1.90;;
3767;SDS011;1899;49.966;7.106;2022-12-29T00:34:42;1.85;;;1.70;;
3767;SDS011;1899;49.966;7.106;2022-12-29T00:37:26;1.67;;;1.45;;
3767;SDS011;1899;49.966;7.106;2022-12-29T00:40:11;2.03;;;1.60;;
3767;SDS011;1899;49.966;7.106;2022-12-29T00:42:55;1.50;;;1.40;;
3767;SDS011;1899;49.966;7.106;2022-12-29T00:45:56;1.60;;;1.50;;
3767;SDS011;1899;49.966;7.106;2022-12-29T00:48:21;2.00;;;1.60;;
3767;SDS011;1899;49.966;7.106;2022-12-29T00:51:05;2.83;;;1.90;;
3767;SDS011;1899;49.966;7.106;2022-12-29T00:53:31;2.45;;;1.40;;
3767;SDS011;1899;49.966;7.106;2022-12-29T00:55:56;1.83;;;1.58;;
3767;SDS011;1899;49.966;7.106;2022-12-29T00:58:21;1.83;;;1.30;;
3767;SDS011;1899;49.966;7.106;2022-12-29T01:00:46;1.80;;;1.70;;
3767;SDS011;1899;49.966;7.106;2022-12-29T01:03:12;1.60;;;1.50;;
3767;SDS011;1899;49.966;7.106;2022-12-29T01:05:37;2.20;;;1.50;;
3767;SDS011;1899;49.966;7.106;2022-12-29T01:08:02;1.23;;;1.10;;
3767;SDS011;1899;49.966;7.106;2022-12-29T01:10:28;2.13;;;1.23;;
3767;SDS011;1899;49.966;7.106;2022-12-29T01:12:53;1.30;;;1.20;;
3767;SDS011;1899;49.966;7.106;2022-12-29T01:15:18;1.87;;;1.30;;
3767;SDS011;1899;49.966;7.106;2022-12-29T01:17:44;1.90;;;1.30;;
3767;SDS011;1899;49.966;7.106;2022-12-29T01:20:09;1.80;;;1.20;;
3767;SDS011;1899;49.966;7.106;2022-12-29T01:22:35;2.08;;;1.10;;
3767;SDS011;1899;49.966;7.106;2022-12-29T01:25:01;1.80;;;1.40;;
3767;SDS011;1899;49.966;7.106;2022-12-29T01:27:26;2.27;;;1.40;;
3767;SDS011;1899;49.966;7.106;2022-12-29T01:29:51;1.10;;;1.00;;
3767;SDS011;1899;49.966;7.106;2022-12-29T01:32:17;2.00;;;1.20;;
3767;SDS011;1899;49.966;7.106;2022-12-29T01:34:42;1.70;;;1.40;;
3767;SDS011;1899;49.966;7.106;2022-12-29T01:37:07;1.13;;;1.03;;
3767;SDS011;1899;49.966;7.106;2022-12-29T01:39:32;1.80;;;1.10;;
3767;SDS011;1899;49.966;7.106;2022-12-29T01:41:58;1.40;;;1.30;;
3767;SDS011;1899;49.966;7.106;2022-12-29T01:47:07;1.90;;;1.50;;
3767;SDS011;1899;49.966;7.106;2022-12-29T01:49:32;1.70;;;1.30;;
3767;SDS011;1899;49.966;7.106;2022-12-29T01:51:58;1.80;;;1.10;;
3767;SDS011;1899;49.966;7.106;2022-12-29T01:54:27;1.40;;;1.10;;
3767;SDS011;1899;49.966;7.106;2022-12-29T01:56:53;1.30;;;1.20;;
3767;SDS011;1899;49.966;7.106;2022-12-29T01:59:21;1.83;;;1.20;;
3767;SDS011;1899;49.966;7.106;2022-12-29T02:01:47;1.95;;;1.50;;
3767;SDS011;1899;49.966;7.106;2022-12-29T02:04:13;2.97;;;1.47;;
3767;SDS011;1899;49.966;7.106;2022-12-29T02:06:43;1.50;;;1.40;;
3767;SDS011;1899;49.966;7.106;2022-12-29T02:09:10;1.30;;;1.20;;
3767;SDS011;1899;49.966;7.106;2022-12-29T02:11:35;2.10;;;1.20;;
3767;SDS011;1899;49.966;7.106;2022-12-29T02:14:01;1.75;;;1.20;;
3767;SDS011;1899;49.966;7.106;2022-12-29T02:27:01;1.30;;;1.20;;
3767;SDS011;1899;49.966;7.106;2022-12-29T02:32:06;1.90;;;1.00;;
3767;SDS011;1899;49.966;7.106;2022-12-29T02:37:22;1.52;;;0.95;;
3767;SDS011;1899;49.966;7.106;2022-12-29T02:40:05;1.40;;;1.30;;
3767;SDS011;1899;49.966;7.106;2022-12-29T02:45:02;2.00;;;1.13;;
3767;SDS011;1899;49.966;7.106;2022-12-29T02:49:57;1.60;;;1.20;;
3767;SDS011;1899;49.966;7.106;2022-12-29T02:52:28;1.98;;;1.30;;
3767;SDS011;1899;49.966;7.106;2022-12-29T02:54:57;1.48;;;1.30;;
3767;SDS011;1899;49.966;7.106;2022-12-29T03:00:11;1.90;;;1.20;;
3767;SDS011;1899;49.966;7.106;2022-12-29T03:02:39;2.47;;;1.30;;
3767;SDS011;1899;49.966;7.106;2022-12-29T03:10:44;1.92;;;1.15;;
3767;SDS011;1899;49.966;7.106;2022-12-29T03:13:56;1.30;;;1.20;;
3767;SDS011;1899;49.966;7.106;2022-12-29T03:16:35;3.22;;;1.42;;
3767;SDS011;1899;49.966;7.106;2022-12-29T03:19:17;1.80;;;1.23;;
3767;SDS011;1899;49.966;7.106;2022-12-29T03:21:45;3.00;;;1.70;;
3767;SDS011;1899;49.966;7.106;2022-12-29T03:24:31;3.25;;;1.38;;
3767;SDS011;1899;49.966;7.106;2022-12-29T03:27:00;2.60;;;1.60;;
3767;SDS011;1899;49.966;7.106;2022-12-29T03:29:27;4.17;;;1.40;;
3767;SDS011;1899;49.966;7.106;2022-12-29T03:31:54;1.80;;;1.33;;
3767;SDS011;1899;49.966;7.106;2022-12-29T03:34:20;2.50;;;1.20;;
3767;SDS011;1899;49.966;7.106;2022-12-29T03:36:52;2.40;;;1.40;;
3767;SDS011;1899;49.966;7.106;2022-12-29T03:39:18;2.50;;;1.40;;
3767;SDS011;1899;49.966;7.106;2022-12-29T03:41:44;2.77;;;1.30;;
3767;SDS011;1899;49.966;7.106;2022-12-29T03:44:10;2.65;;;1.50;;
3767;SDS011;1899;49.966;7.106;2022-12-29T03:46:35;3.40;;;1.50;;
3767;SDS011;1899;49.966;7.106;2022-12-29T03:49:01;3.23;;;1.53;;
3767;SDS011;1899;49.966;7.106;2022-12-29T03:51:26;1.80;;;1.50;;
3767;SDS011;1899;49.966;7.106;2022-12-29T03:53:51;3.37;;;1.47;;
3767;SDS011;1899;49.966;7.106;2022-12-29T03:56:16;2.70;;;1.50;;
3767;SDS011;1899;49.966;7.106;2022-12-29T03:58:42;2.00;;;1.70;;
3767;SDS011;1899;49.966;7.106;2022-12-29T04:01:07;2.23;;;1.60;;
3767;SDS011;1899;49.966;7.106;2022-12-29T04:03:32;1.30;;;1.20;;
3767;SDS011;1899;49.966;7.106;2022-12-29T04:05:57;3.40;;;1.60;;
3767;SDS011;1899;49.966;7.106;2022-12-29T04:08:23;2.60;;;1.60;;
3767;SDS011;1899;49.966;7.106;2022-12-29T04:10:48;2.10;;;1.50;;
3767;SDS011;1899;49.966;7.106;2022-12-29T04:13:14;2.55;;;1.50;;
3767;SDS011;1899;49.966;7.106;2022-12-29T04:15:39;3.70;;;1.60;;
3767;SDS011;1899;49.966;7.106;2022-12-29T04:18:04;3.10;;;1.37;;
3767;SDS011;1899;49.966;7.106;2022-12-29T04:20:30;3.30;;;1.50;;
3767;SDS011;1899;49.966;7.106;2022-12-29T04:23:13;5.00;;;1.80;;
3767;SDS011;1899;49.966;7.106;2022-12-29T04:25:39;2.80;;;1.67;;
3767;SDS011;1899;49.966;7.106;2022-12-29T04:28:04;1.60;;;1.50;;
3767;SDS011;1899;49.966;7.106;2022-12-29T04:30:30;2.50;;;1.60;;
3767;SDS011;1899;49.966;7.106;2022-12-29T04:32:55;2.17;;;1.60;;
3767;SDS011;1899;49.966;7.106;2022-12-29T04:35:20;2.40;;;1.40;;
3767;SDS011;1899;49.966;7.106;2022-12-29T04:37:46;2.80;;;1.60;;
3767;SDS011;1899;49.966;7.106;2022-12-29T04:40:11;3.60;;;1.30;;
3767;SDS011;1899;49.966;7.106;2022-12-29T04:42:36;3.13;;;1.47;;
3767;SDS011;1899;49.966;7.106;2022-12-29T04:45:02;2.10;;;1.40;;
3767;SDS011;1899;49.966;7.106;2022-12-29T04:47:27;2.43;;;1.20;;
3767;SDS011;1899;49.966;7.106;2022-12-29T04:49:52;2.40;;;1.37;;
3767;SDS011;1899;49.966;7.106;2022-12-29T04:52:17;2.40;;;1.50;;
3767;SDS011;1899;49.966;7.106;2022-12-29T04:54:43;2.10;;;1.30;;
3767;SDS011;1899;49.966;7.106;2022-12-29T04:57:08;1.83;;;1.50;;
3767;SDS011;1899;49.966;7.106;2022-12-29T04:59:33;1.70;;;1.60;;
3767;SDS011;1899;49.966;7.106;2022-12-29T05:01:58;1.70;;;1.50;;
3767;SDS011;1899;49.966;7.106;2022-12-29T05:04:24;2.47;;;1.65;;
3767;SDS011;1899;49.966;7.106;2022-12-29T05:06:49;1.73;;;1.40;;
3767;SDS011;1899;49.966;7.106;2022-12-29T05:09:14;2.60;;;1.38;;
3767;SDS011;1899;49.966;7.106;2022-12-29T05:11:39;2.70;;;1.30;;
3767;SDS011;1899;49.966;7.106;2022-12-29T05:14:05;3.40;;;1.60;;
3767;SDS011;1899;49.966;7.106;2022-12-29T05:16:30;2.73;;;1.30;;
3767;SDS011;1899;49.966;7.106;2022-12-29T05:18:55;2.73;;;1.40;;
3767;SDS011;1899;49.966;7.106;2022-12-29T05:21:20;2.47;;;1.30;;
3767;SDS011;1899;49.966;7.106;2022-12-29T05:23:45;3.17;;;1.60;;
3767;SDS011;1899;49.966;7.106;2022-12-29T05:26:11;1.80;;;1.40;;
3767;SDS011;1899;49.966;7.106;2022-12-29T05:28:36;2.57;;;1.30;;
3767;SDS011;1899;49.966;7.106;2022-12-29T05:31:01;2.50;;;1.50;;
3767;SDS011;1899;49.966;7.106;2022-12-29T05:33:27;2.30;;;1.33;;
3767;SDS011;1899;49.966;7.106;2022-12-29T05:35:52;2.80;;;1.40;;
3767;SDS011;1899;49.966;7.106;2022-12-29T05:38:17;3.40;;;1.60;;
3767;SDS011;1899;49.966;7.106;2022-12-29T05:40:43;3.13;;;1.30;;
3767;SDS011;1899;49.966;7.106;2022-12-29T05:43:08;1.60;;;1.20;;
3767;SDS011;1899;49.966;7.106;2022-12-29T05:45:33;2.20;;;1.40;;
3767;SDS011;1899;49.966;7.106;2022-12-29T05:47:58;1.90;;;1.30;;
3767;SDS011;1899;49.966;7.106;2022-12-29T05:50:24;3.40;;;1.50;;
3767;SDS011;1899;49.966;7.106;2022-12-29T05:52:49;4.10;;;1.70;;
3767;SDS011;1899;49.966;7.106;2022-12-29T05:55:14;2.70;;;1.60;;
3767;SDS011;1899;49.966;7.106;2022-12-29T05:57:39;2.90;;;1.40;;
3767;SDS011;1899;49.966;7.106;2022-12-29T06:00:05;1.53;;;1.30;;
3767;SDS011;1899;49.966;7.106;2022-12-29T06:02:31;2.13;;;1.15;;
3767;SDS011;1899;49.966;7.106;2022-12-29T06:04:56;2.10;;;1.20;;
3767;SDS011;1899;49.966;7.106;2022-12-29T06:07:21;1.70;;;1.30;;
3767;SDS011;1899;49.966;7.106;2022-12-29T06:09:46;2.20;;;1.17;;
3767;SDS011;1899;49.966;7.106;2022-12-29T06:12:12;2.90;;;1.30;;
3767;SDS011;1899;49.966;7.106;2022-12-29T06:14:37;1.90;;;1.10;;
3767;SDS011;1899;49.966;7.106;2022-12-29T06:17:02;1.67;;;1.20;;
3767;SDS011;1899;49.966;7.106;2022-12-29T06:19:28;1.90;;;1.40;;
3767;SDS011;1899;49.966;7.106;2022-12-29T06:21:53;3.30;;;1.50;;
3767;SDS011;1899;49.966;7.106;2022-12-29T06:24:18;1.50;;;1.40;;
3767;SDS011;1899;49.966;7.106;2022-12-29T06:26:44;2.10;;;1.40;;
3767;SDS011;1899;49.966;7.106;2022-12-29T06:29:09;2.30;;;1.47;;
3767;SDS011;1899;49.966;7.106;2022-12-29T06:31:34;1.90;;;1.60;;
3767;SDS011;1899;49.966;7.106;2022-12-29T06:33:59;2.33;;;1.40;;
3767;SDS011;1899;49.966;7.106;2022-12-29T06:36:25;1.70;;;1.40;;
3767;SDS011;1899;49.966;7.106;2022-12-29T06:38:50;2.07;;;1.30;;
3767;SDS011;1899;49.966;7.106;2022-12-29T06:41:17;2.63;;;1.30;;
3767;SDS011;1899;49.966;7.106;2022-12-29T06:43:43;2.40;;;1.20;;
3767;SDS011;1899;49.966;7.106;2022-12-29T06:46:08;1.50;;;1.23;;
3767;SDS011;1899;49.966;7.106;2022-12-29T06:48:33;3.10;;;1.40;;
3767;SDS011;1899;49.966;7.106;2022-12-29T06:50:58;2.00;;;1.20;;
3767;SDS011;1899;49.966;7.106;2022-12-29T06:53:24;1.53;;;1.30;;
3767;SDS011;1899;49.966;7.106;2022-12-29T06:55:49;2.03;;;1.67;;
3767;SDS011;1899;49.966;7.106;2022-12-29T06:58:15;1.88;;;1.00;;
3767;SDS011;1899;49.966;7.106;2022-12-29T07:00:40;1.80;;;1.30;;
3767;SDS011;1899;49.966;7.106;2022-12-29T07:03:05;3.30;;;1.17;;
3767;SDS011;1899;49.966;7.106;2022-12-29T07:05:31;2.03;;;1.30;;
3767;SDS011;1899;49.966;7.106;2022-12-29T07:07:57;1.60;;;1.20;;
3767;SDS011;1899;49.966;7.106;2022-12-29T07:10:23;2.20;;;1.40;;
3767;SDS011;1899;49.966;7.106;2022-12-29T07:12:48;2.10;;;1.10;;
3767;SDS011;1899;49.966;7.106;2022-12-29T07:15:13;1.90;;;1.40;;
3767;SDS011;1899;49.966;7.106;2022-12-29T07:17:39;3.30;;;1.50;;
3767;SDS011;1899;49.966;7.106;2022-12-29T07:20:04;1.70;;;1.30;;
3767;SDS011;1899;49.966;7.106;2022-12-29T07:22:30;1.75;;;1.20;;
3767;SDS011;1899;49.966;7.106;2022-12-29T07:24:55;2.20;;;1.10;;
3767;SDS011;1899;49.966;7.106;2022-12-29T07:27:21;2.30;;;1.10;;
3767;SDS011;1899;49.966;7.106;2022-12-29T07:29:46;2.27;;;1.40;;
3767;SDS011;1899;49.966;7.106;2022-12-29T07:32:11;1.10;;;1.00;;
3767;SDS011;1899;49.966;7.106;2022-12-29T07:34:36;1.80;;;1.30;;
3767;SDS011;1899;49.966;7.106;2022-12-29T07:37:02;1.60;;;1.50;;
3767;SDS011;1899;49.966;7.106;2022-12-29T07:39:27;3.30;;;1.80;;
3767;SDS011;1899;49.966;7.106;2022-12-29T07:41:52;1.90;;;1.53;;
3767;SDS011;1899;49.966;7.106;2022-12-29T07:44:18;1.80;;;1.10;;
3767;SDS011;1899;49.966;7.106;2022-12-29T07:46:43;2.38;;;1.40;;
3767;SDS011;1899;49.966;7.106;2022-12-29T07:49:08;2.30;;;1.20;;
3767;SDS011;1899;49.966;7.106;2022-12-29T07:51:33;3.00;;;1.40;;
3767;SDS011;1899;49.966;7.106;2022-12-29T07:53:59;2.40;;;1.50;;
3767;SDS011;1899;49.966;7.106;2022-12-29T07:56:25;4.60;;;1.50;;
3767;SDS011;1899;49.966;7.106;2022-12-29T07:58:50;2.30;;;1.40;;
3767;SDS011;1899;49.966;7.106;2022-12-29T08:01:16;1.53;;;1.23;;
3767;SDS011;1899;49.966;7.106;2022-12-29T08:03:41;3.47;;;1.70;;
3767;SDS011;1899;49.966;7.106;2022-12-29T08:06:08;2.10;;;1.20;;
3767;SDS011;1899;49.966;7.106;2022-12-29T08:08:34;1.40;;;1.30;;
3767;SDS011;1899;49.966;7.106;2022-12-29T08:10:59;1.60;;;1.20;;
3767;SDS011;1899;49.966;7.106;2022-12-29T08:13:24;1.47;;;1.00;;
3767;SDS011;1899;49.966;7.106;2022-12-29T08:15:49;1.80;;;1.40;;
3767;SDS011;1899;49.966;7.106;2022-12-29T08:18:14;1.90;;;1.30;;
3767;SDS011;1899;49.966;7.106;2022-12-29T08:20:40;1.97;;;1.23;;
3767;SDS011;1899;49.966;7.106;2022-12-29T08:23:05;3.00;;;1.60;;
3767;SDS011;1899;49.966;7.106;2022-12-29T08:25:30;2.27;;;1.27;;
3767;SDS011;1899;49.966;7.106;2022-12-29T08:27:56;2.00;;;1.70;;
3767;SDS011;1899;49.966;7.106;2022-12-29T08:30:21;2.45;;;1.10;;
3767;SDS011;1899;49.966;7.106;2022-12-29T08:32:46;1.93;;;1.20;;
3767;SDS011;1899;49.966;7.106;2022-12-29T08:35:12;2.10;;;1.10;;
3767;SDS011;1899;49.966;7.106;2022-12-29T08:37:37;1.27;;;1.00;;
3767;SDS011;1899;49.966;7.106;2022-12-29T08:40:03;2.73;;;1.27;;
3767;SDS011;1899;49.966;7.106;2022-12-29T08:42:29;2.60;;;1.20;;
3767;SDS011;1899;49.966;7.106;2022-12-29T08:44:58;3.40;;;1.45;;
3767;SDS011;1899;49.966;7.106;2022-12-29T08:47:24;1.80;;;1.10;;
3767;SDS011;1899;49.966;7.106;2022-12-29T08:49:49;3.20;;;1.40;;
3767;SDS011;1899;49.966;7.106;2022-12-29T08:52:15;2.20;;;1.30;;
3767;SDS011;1899;49.966;7.106;2022-12-29T08:54:40;2.93;;;1.40;;
3767;SDS011;1899;49.966;7.106;2022-12-29T08:57:05;1.90;;;1.13;;
3767;SDS011;1899;49.966;7.106;2022-12-29T08:59:30;3.30;;;1.70;;
3767;SDS011;1899;49.966;7.106;2022-12-29T09:01:56;3.00;;;1.50;;
3767;SDS011;1899;49.966;7.106;2022-12-29T09:04:21;3.30;;;1.70;;
3767;SDS011;1899;49.966;7.106;2022-12-29T09:06:48;2.83;;;1.50;;
3767;SDS011;1899;49.966;7.106;2022-12-29T09:09:13;1.97;;;1.10;;
3767;SDS011;1899;49.966;7.106;2022-12-29T09:11:39;3.67;;;2.30;;
3767;SDS011;1899;49.966;7.106;2022-12-29T09:14:04;1.80;;;1.27;;
3767;SDS011;1899;49.966;7.106;2022-12-29T09:16:31;1.80;;;1.27;;
3767;SDS011;1899;49.966;7.106;2022-12-29T09:18:57;3.30;;;1.20;;
3767;SDS011;1899;49.966;7.106;2022-12-29T09:21:22;1.30;;;1.10;;
3767;SDS011;1899;49.966;7.106;2022-12-29T09:23:47;2.83;;;1.40;;
3767;SDS011;1899;49.966;7.106;2022-12-29T09:26:13;2.20;;;1.20;;
3767;SDS011;1899;49.966;7.106;2022-12-29T09:28:38;1.37;;;0.80;;
3767;SDS011;1899;49.966;7.106;2022-12-29T09:31:03;1.40;;;0.90;;
3767;SDS011;1899;49.966;7.106;2022-12-29T09:33:28;2.40;;;1.00;;
3767;SDS011;1899;49.966;7.106;2022-12-29T09:35:55;2.37;;;0.80;;
3767;SDS011;1899;49.966;7.106;2022-12-29T09:38:20;2.28;;;1.38;;
3767;SDS011;1899;49.966;7.106;2022-12-29T09:40:49;2.13;;;0.90;;
3767;SDS011;1899;49.966;7.106;2022-12-29T09:43:28;2.20;;;0.90;;
3767;SDS011;1899;49.966;7.106;2022-12-29T09:48:23;2.07;;;1.20;;
3767;SDS011;1899;49.966;7.106;2022-12-29T09:50:51;2.97;;;0.85;;
3767;SDS011;1899;49.966;7.106;2022-12-29T09:53:29;1.38;;;1.00;;
3767;SDS011;1899;49.966;7.106;2022-12-29T09:55:57;1.63;;;0.70;;
3767;SDS011;1899;49.966;7.106;2022-12-29T10:03:24;2.00;;;0.90;;
3767;SDS011;1899;49.966;7.106;2022-12-29T10:06:01;3.30;;;1.00;;
3767;SDS011;1899;49.966;7.106;2022-12-29T10:11:10;3.28;;;1.30;;
3767;SDS011;1899;49.966;7.106;2022-12-29T10:13:42;3.40;;;1.00;;
3767;SDS011;1899;49.966;7.106;2022-12-29T10:16:17;3.55;;;1.00;;
3767;SDS011;1899;49.966;7.106;2022-12-29T10:21:13;2.00;;;1.00;;
3767;SDS011;1899;49.966;7.106;2022-12-29T10:23:42;2.45;;;0.88;;
3767;SDS011;1899;49.966;7.106;2022-12-29T10:26:11;2.20;;;1.00;;
3767;SDS011;1899;49.966;7.106;2022-12-29T10:28:39;2.60;;;1.00;;
3767;SDS011;1899;49.966;7.106;2022-12-29T10:31:09;3.38;;;1.20;;
3767;SDS011;1899;49.966;7.106;2022-12-29T10:33:39;3.67;;;1.10;;
3767;SDS011;1899;49.966;7.106;2022-12-29T10:36:16;3.00;;;1.10;;
3767;SDS011;1899;49.966;7.106;2022-12-29T10:38:45;2.97;;;1.30;;
3767;SDS011;1899;49.966;7.106;2022-12-29T10:43:46;3.80;;;1.23;;
3767;SDS011;1899;49.966;7.106;2022-12-29T10:46:12;3.10;;;1.20;;
3767;SDS011;1899;49.966;7.106;2022-12-29T10:48:39;3.47;;;1.10;;
3767;SDS011;1899;49.966;7.106;2022-12-29T10:51:05;3.13;;;1.20;;
3767;SDS011;1899;49.966;7.106;2022-12-29T10:53:33;2.67;;;1.10;;
3767;SDS011;1899;49.966;7.106;2022-12-29T10:56:00;4.32;;;1.10;;
3767;SDS011;1899;49.966;7.106;2022-12-29T10:58:26;4.38;;;1.10;;
3767;SDS011;1899;49.966;7.106;2022-12-29T11:00:53;3.75;;;1.45;;
3767;SDS011;1899;49.966;7.106;2022-12-29T11:06:01;4.45;;;1.10;;
3767;SDS011;1899;49.966;7.106;2022-12-29T11:08:36;4.13;;;1.20;;
3767;SDS011;1899;49.966;7.106;2022-12-29T11:11:04;3.55;;;1.20;;
3767;SDS011;1899;49.966;7.106;2022-12-29T11:13:30;4.70;;;1.70;;
3767;SDS011;1899;49.966;7.106;2022-12-29T11:15:56;3.90;;;1.00;;
3767;SDS011;1899;49.966;7.106;2022-12-29T11:18:32;2.70;;;1.00;;
3767;SDS011;1899;49.966;7.106;2022-12-29T11:20:58;4.28;;;1.10;;
3767;SDS011;1899;49.966;7.106;2022-12-29T11:23:37;2.50;;;1.10;;
3767;SDS011;1899;49.966;7.106;2022-12-29T11:26:22;3.08;;;1.30;;
3767;SDS011;1899;49.966;7.106;2022-12-29T11:29:03;4.50;;;1.10;;
3767;SDS011;1899;49.966;7.106;2022-12-29T11:31:29;3.97;;;1.38;;
3767;SDS011;1899;49.966;7.106;2022-12-29T11:33:54;4.85;;;1.23;;
3767;SDS011;1899;49.966;7.106;2022-12-29T11:36:20;4.50;;;1.30;;
3767;SDS011;1899;49.966;7.106;2022-12-29T11:38:53;4.60;;;1.20;;
3767;SDS011;1899;49.966;7.106;2022-12-29T11:41:23;3.90;;;1.10;;
3767;SDS011;1899;49.966;7.106;2022-12-29T11:43:48;2.72;;;1.10;;
3767;SDS011;1899;49.966;7.106;2022-12-29T11:46:15;4.15;;;1.10;;
3767;SDS011;1899;49.966;7.106;2022-12-29T11:48:41;2.50;;;1.27;;
3767;SDS011;1899;49.966;7.106;2022-12-29T11:51:07;5.00;;;1.60;;
3767;SDS011;1899;49.966;7.106;2022-12-29T11:53:45;2.95;;;1.02;;
3767;SDS011;1899;49.966;7.106;2022-12-29T11:56:12;4.40;;;1.30;;
3767;SDS011;1899;49.966;7.106;2022-12-29T11:58:39;3.45;;;1.10;;
3767;SDS011;1899;49.966;7.106;2022-12-29T12:01:14;4.17;;;1.20;;
3767;SDS011;1899;49.966;7.106;2022-12-29T12:03:42;2.88;;;1.30;;
3767;SDS011;1899;49.966;7.106;2022-12-29T12:06:10;5.13;;;1.10;;
3767;SDS011;1899;49.966;7.106;2022-12-29T12:11:16;2.85;;;0.98;;
3767;SDS011;1899;49.966;7.106;2022-12-29T12:16:24;4.30;;;1.20;;
3767;SDS011;1899;49.966;7.106;2022-12-29T12:18:53;7.30;;;2.00;;
3767;SDS011;1899;49.966;7.106;2022-12-29T12:21:21;4.50;;;1.10;;
3767;SDS011;1899;49.966;7.106;2022-12-29T12:26:37;3.30;;;1.10;;
3767;SDS011;1899;49.966;7.106;2022-12-29T12:29:14;4.68;;;1.30;;
3767;SDS011;1899;49.966;7.106;2022-12-29T12:34:06;3.20;;;1.20;;
3767;SDS011;1899;49.966;7.106;2022-12-29T12:39:11;5.35;;;1.40;;
3767;SDS011;1899;49.966;7.106;2022-12-29T12:52:17;3.30;;;1.13;;
3767;SDS011;1899;49.966;7.106;2022-12-29T13:00:16;5.87;;;1.57;;
3767;SDS011;1899;49.966;7.106;2022-12-29T13:03:05;3.10;;;1.20;;
3767;SDS011;1899;49.966;7.106;2022-12-29T13:10:50;5.03;;;1.20;;
3767;SDS011;1899;49.966;7.106;2022-12-29T13:18:45;3.88;;;1.20;;
3767;SDS011;1899;49.966;7.106;2022-12-29T13:26:14;4.03;;;1.30;;
3767;SDS011;1899;49.966;7.106;2022-12-29T13:28:52;4.90;;;1.30;;
3767;SDS011;1899;49.966;7.106;2022-12-29T13:31:24;2.90;;;1.20;;
3767;SDS011;1899;49.966;7.106;2022-12-29T13:38:47;3.10;;;1.23;;
3767;SDS011;1899;49.966;7.106;2022-12-29T13:41:24;4.45;;;1.40;;
3767;SDS011;1899;49.966;7.106;2022-12-29T13:43:50;2.70;;;1.00;;
3767;SDS011;1899;49.966;7.106;2022-12-29T13:46:21;5.33;;;1.40;;
3767;SDS011;1899;49.966;7.106;2022-12-29T13:48:49;4.30;;;1.30;;
3767;SDS011;1899;49.966;7.106;2022-12-29T13:51:16;5.90;;;1.38;;
3767;SDS011;1899;49.966;7.106;2022-12-29T13:53:49;2.65;;;1.20;;
3767;SDS011;1899;49.966;7.106;2022-12-29T14:01:34;4.75;;;1.65;;
3767;SDS011;1899;49.966;7.106;2022-12-29T14:04:09;3.10;;;1.40;;
3767;SDS011;1899;49.966;7.106;2022-12-29T14:06:35;2.70;;;1.27;;
3767;SDS011;1899;49.966;7.106;2022-12-29T14:09:06;7.10;;;1.50;;
3767;SDS011;1899;49.966;7.106;2022-12-29T14:11:38;4.97;;;1.52;;
3767;SDS011;1899;49.966;7.106;2022-12-29T14:16:44;7.38;;;1.42;;
3767;SDS011;1899;49.966;7.106;2022-12-29T14:19:12;3.88;;;1.42;;
3767;SDS011;1899;49.966;7.106;2022-12-29T14:21:38;3.75;;;1.48;;
3767;SDS011;1899;49.966;7.106;2022-12-29T14:26:48;4.20;;;1.50;;
3767;SDS011;1899;49.966;7.106;2022-12-29T14:29:41;3.40;;;1.47;;
3767;SDS011;1899;49.966;7.106;2022-12-29T14:31:58;4.95;;;1.35;;
3767;SDS011;1899;49.966;7.106;2022-12-29T14:42:03;4.90;;;1.50;;
3767;SDS011;1899;49.966;7.106;2022-12-29T14:44:29;5.78;;;1.65;;
3767;SDS011;1899;49.966;7.106;2022-12-29T14:49:21;4.25;;;1.60;;
3767;SDS011;1899;49.966;7.106;2022-12-29T14:51:48;4.15;;;1.55;;
3767;SDS011;1899;49.966;7.106;2022-12-29T14:56:58;4.18;;;1.42;;
3767;SDS011;1899;49.966;7.106;2022-12-29T14:59:24;2.70;;;1.20;;
3767;SDS011;1899;49.966;7.106;2022-12-29T15:01:52;3.75;;;1.40;;
3767;SDS011;1899;49.966;7.106;2022-12-29T15:04:18;6.32;;;1.70;;
3767;SDS011;1899;49.966;7.106;2022-12-29T15:06:44;7.32;;;1.60;;
3767;SDS011;1899;49.966;7.106;2022-12-29T15:14:01;4.22;;;1.40;;
3767;SDS011;1899;49.966;7.106;2022-12-29T15:16:33;4.73;;;1.90;;
3767;SDS011;1899;49.966;7.106;2022-12-29T15:19:01;5.72;;;1.77;;
3767;SDS011;1899;49.966;7.106;2022-12-29T15:21:30;5.68;;;1.63;;
3767;SDS011;1899;49.966;7.106;2022-12-29T15:23:56;9.33;;;2.23;;
3767;SDS011;1899;49.966;7.106;2022-12-29T15:26:21;6.67;;;1.80;;
3767;SDS011;1899;49.966;7.106;2022-12-29T15:28:50;5.35;;;1.40;;
3767;SDS011;1899;49.966;7.106;2022-12-29T15:31:23;6.77;;;1.80;;
3767;SDS011;1899;49.966;7.106;2022-12-29T15:33:50;4.72;;;1.40;;
3767;SDS011;1899;49.966;7.106;2022-12-29T15:38:44;5.45;;;1.70;;
3767;SDS011;1899;49.966;7.106;2022-12-29T15:44:29;4.93;;;1.52;;
3767;SDS011;1899;49.966;7.106;2022-12-29T15:46:35;5.45;;;1.58;;
3767;SDS011;1899;49.966;7.106;2022-12-29T15:49:04;6.57;;;1.73;;
3767;SDS011;1899;49.966;7.106;2022-12-29T15:51:30;5.50;;;1.70;;
3767;SDS011;1899;49.966;7.106;2022-12-29T15:53:57;4.68;;;1.50;;
3767;SDS011;1899;49.966;7.106;2022-12-29T15:56:22;5.32;;;1.90;;
3767;SDS011;1899;49.966;7.106;2022-12-29T15:58:49;5.10;;;1.33;;
3767;SDS011;1899;49.966;7.106;2022-12-29T16:03:43;8.05;;;2.15;;
3767;SDS011;1899;49.966;7.106;2022-12-29T16:06:21;6.78;;;1.65;;
3767;SDS011;1899;49.966;7.106;2022-12-29T16:08:55;6.47;;;1.65;;
3767;SDS011;1899;49.966;7.106;2022-12-29T16:11:22;6.53;;;2.00;;
3767;SDS011;1899;49.966;7.106;2022-12-29T16:13:48;5.43;;;1.80;;
3767;SDS011;1899;49.966;7.106;2022-12-29T16:16:16;4.15;;;1.60;;
3767;SDS011;1899;49.966;7.106;2022-12-29T16:18:43;4.90;;;1.98;;
3767;SDS011;1899;49.966;7.106;2022-12-29T16:21:15;6.78;;;2.00;;
3767;SDS011;1899;49.966;7.106;2022-12-29T16:23:41;6.35;;;1.73;;
3767;SDS011;1899;49.966;7.106;2022-12-29T16:26:14;4.60;;;1.73;;
3767;SDS011;1899;49.966;7.106;2022-12-29T16:28:40;7.13;;;1.80;;
3767;SDS011;1899;49.966;7.106;2022-12-29T16:31:17;5.22;;;2.25;;
3767;SDS011;1899;49.966;7.106;2022-12-29T16:36:32;7.68;;;1.98;;
3767;SDS011;1899;49.966;7.106;2022-12-29T16:41:41;7.38;;;2.20;;
3767;SDS011;1899;49.966;7.106;2022-12-29T16:46:44;5.22;;;2.00;;
3767;SDS011;1899;49.966;7.106;2022-12-29T16:49:20;9.25;;;2.30;;
3767;SDS011;1899;49.966;7.106;2022-12-29T16:51:46;9.13;;;2.30;;
3767;SDS011;1899;49.966;7.106;2022-12-29T16:54:18;5.83;;;1.97;;
3767;SDS011;1899;49.966;7.106;2022-12-29T16:56:45;6.85;;;2.00;;
3767;SDS011;1899;49.966;7.106;2022-12-29T17:01:54;10.50;;;2.13;;
3767;SDS011;1899;49.966;7.106;2022-12-29T17:04:20;4.18;;;1.85;;
3767;SDS011;1899;49.966;7.106;2022-12-29T17:06:45;5.20;;;1.90;;
3767;SDS011;1899;49.966;7.106;2022-12-29T17:11:46;5.88;;;1.90;;
3767;SDS011;1899;49.966;7.106;2022-12-29T17:17:13;8.50;;;2.08;;
3767;SDS011;1899;49.966;7.106;2022-12-29T17:19:39;7.83;;;2.20;;
3767;SDS011;1899;49.966;7.106;2022-12-29T17:25:01;5.70;;;2.40;;
3767;SDS011;1899;49.966;7.106;2022-12-29T17:29:59;5.15;;;2.25;;
3767;SDS011;1899;49.966;7.106;2022-12-29T17:32:25;13.18;;;2.42;;
3767;SDS011;1899;49.966;7.106;2022-12-29T17:34:51;9.37;;;2.80;;
3767;SDS011;1899;49.966;7.106;2022-12-29T17:39:47;5.40;;;2.30;;
3767;SDS011;1899;49.966;7.106;2022-12-29T17:42:12;7.67;;;2.70;;
3767;SDS011;1899;49.966;7.106;2022-12-29T17:44:38;8.23;;;2.70;;
3767;SDS011;1899;49.966;7.106;2022-12-29T17:47:03;5.23;;;2.30;;
3767;SDS011;1899;49.966;7.106;2022-12-29T17:49:28;6.73;;;2.33;;
3767;SDS011;1899;49.966;7.106;2022-12-29T17:51:53;7.43;;;2.33;;
3767;SDS011;1899;49.966;7.106;2022-12-29T17:54:20;6.60;;;2.10;;
3767;SDS011;1899;49.966;7.106;2022-12-29T17:56:46;7.85;;;2.45;;
3767;SDS011;1899;49.966;7.106;2022-12-29T17:59:11;7.30;;;2.50;;